createdAt,value
2023-05-02T00:00:34.261Z,98686.81
2023-05-02T00:03:00.454Z,98687.84
2023-05-02T00:05:26.719Z,98681.66
2023-05-02T00:07:52.971Z,98681.66
2023-05-02T00:10:19.092Z,98678.97
2023-05-02T00:12:45.202Z,98678.16
2023-05-02T00:15:11.288Z,98679.81
2023-05-02T00:17:37.453Z,98675.47
2023-05-02T00:20:03.571Z,98681.88
2023-05-02T00:22:29.675Z,98670.94
2023-05-02T00:24:55.799Z,98681.88
2023-05-02T00:27:21.887Z,98684.56
2023-05-02T00:29:47.995Z,98684.56
2023-05-02T00:32:14.389Z,98680.03
2023-05-02T00:34:40.491Z,98686.41
2023-05-02T00:37:06.603Z,98683.72
2023-05-02T00:39:32.940Z,98683.72
2023-05-02T00:41:59.061Z,98680.22
2023-05-02T00:44:25.170Z,98690.91
2023-05-02T00:46:51.326Z,98700.78
2023-05-02T00:49:17.526Z,98695.44
2023-05-02T00:51:43.620Z,98698.13
2023-05-02T00:54:09.736Z,98700.78
2023-05-02T00:56:35.863Z,98702.66
2023-05-02T00:59:06.006Z,98702.66
2023-05-02T01:01:32.329Z,98699.97
2023-05-02T01:03:58.582Z,98708.00
2023-05-02T01:06:24.857Z,98704.28
2023-05-02T01:08:51.111Z,98705.31
2023-05-02T01:11:17.225Z,98714.38
2023-05-02T01:13:43.343Z,98713.34
2023-05-02T01:16:09.529Z,98712.53
2023-05-02T01:18:35.676Z,98713.34
2023-05-02T01:21:01.759Z,98715.22
2023-05-02T01:23:27.868Z,98706.34
2023-05-02T01:25:53.974Z,98710.06
2023-05-02T01:28:20.067Z,98717.03
2023-05-02T01:30:46.211Z,98710.06
2023-05-02T01:33:12.467Z,98712.72
2023-05-02T01:35:38.580Z,98718.06
2023-05-02T01:38:04.744Z,98726.91
2023-05-02T01:40:30.867Z,98721.56
2023-05-02T01:42:56.962Z,98726.09
2023-05-02T01:45:23.076Z,98725.28
2023-05-02T01:47:49.252Z,98730.63
2023-05-02T01:50:15.394Z,98727.16
2023-05-02T01:52:41.519Z,98726.28
2023-05-02T01:55:07.620Z,98732.50
2023-05-02T01:57:33.710Z,98729.81
2023-05-02T02:00:00.208Z,98741.34
2023-05-02T02:02:26.543Z,98738.66
2023-05-02T02:04:52.789Z,98733.31
2023-05-02T02:07:18.939Z,98747.50
2023-05-02T02:09:45.043Z,98746.69
2023-05-02T02:12:11.127Z,98753.91
2023-05-02T02:14:37.251Z,98755.72
2023-05-02T02:17:03.470Z,98757.59
2023-05-02T02:19:29.706Z,98756.75
2023-05-02T02:21:55.819Z,98755.94
2023-05-02T02:24:21.916Z,98760.25
2023-05-02T02:26:48.002Z,98761.28
2023-05-02T02:29:14.256Z,98765.81
2023-05-02T02:31:40.346Z,98770.31
2023-05-02T02:34:06.441Z,98775.69
2023-05-02T02:36:32.559Z,98772.19
2023-05-02T02:38:58.657Z,98771.38
2023-05-02T02:41:24.749Z,98770.53
2023-05-02T02:43:50.904Z,98777.53
2023-05-02T02:46:17.102Z,98778.56
2023-05-02T02:48:43.238Z,98788.25
2023-05-02T02:51:09.357Z,98788.25
2023-05-02T02:53:35.464Z,98786.38
2023-05-02T02:56:01.565Z,98788.03
2023-05-02T02:58:27.685Z,98795.25
2023-05-02T03:00:53.783Z,98789.06
2023-05-02T03:03:19.964Z,98794.63
2023-05-02T03:05:46.259Z,98794.81
2023-05-02T03:08:12.368Z,98804.69
2023-05-02T03:10:38.493Z,98804.69
2023-05-02T03:13:04.754Z,98801.19
2023-05-02T03:15:30.864Z,98802.03
2023-05-02T03:17:56.989Z,98806.34
2023-05-02T03:20:23.181Z,98814.34
2023-05-02T03:22:49.283Z,98808.19
2023-05-02T03:25:15.400Z,98815.19
2023-05-02T03:27:41.531Z,98815.19
2023-05-02T03:30:07.681Z,98808.19
2023-05-02T03:32:33.843Z,98820.75
2023-05-02T03:34:59.971Z,98809.00
2023-05-02T03:37:26.087Z,98810.03
2023-05-02T03:39:52.190Z,98823.19
2023-05-02T03:42:18.813Z,98832.06
2023-05-02T03:44:44.899Z,98825.06
2023-05-02T03:47:11.188Z,98820.75
2023-05-02T03:49:37.367Z,98826.09
2023-05-02T03:52:03.474Z,98827.94
2023-05-02T03:54:29.576Z,98836.78
2023-05-02T03:56:55.850Z,98831.44
2023-05-02T03:59:21.939Z,98835.13
2023-05-02T04:01:48.068Z,98838.66
2023-05-02T04:04:14.250Z,98838.66
2023-05-02T04:06:40.692Z,98841.31
2023-05-02T04:09:06.824Z,98837.81
2023-05-02T04:11:33.092Z,98836.97
2023-05-02T04:13:59.231Z,98847.50
2023-05-02T04:16:25.393Z,98852.03
2023-05-02T04:18:51.688Z,98848.50
2023-05-02T04:21:17.793Z,98852.03
2023-05-02T04:23:43.885Z,98860.06
2023-05-02T04:26:10.054Z,98858.38
2023-05-02T04:28:36.149Z,98856.53
2023-05-02T04:31:02.295Z,98862.72
2023-05-02T04:33:28.571Z,98865.41
2023-05-02T04:35:54.671Z,98851.19
2023-05-02T04:38:20.774Z,98853.03
2023-05-02T04:40:47.057Z,98862.72
2023-05-02T04:43:13.170Z,98870.75
2023-05-02T04:45:39.274Z,98878.78
2023-05-02T04:48:05.522Z,98879.78
2023-05-02T04:50:31.731Z,98874.44
2023-05-02T04:52:58.074Z,98883.28
2023-05-02T04:55:24.178Z,98884.13
2023-05-02T04:57:50.266Z,98893.16
2023-05-02T05:00:16.523Z,98892.34
2023-05-02T05:02:42.844Z,98903.88
2023-05-02T05:05:09.272Z,98903.88
2023-05-02T05:07:35.524Z,98902.22
2023-05-02T05:10:02.077Z,98905.91
2023-05-02T05:12:28.455Z,98912.91
2023-05-02T05:14:54.567Z,98916.59
2023-05-02T05:17:20.834Z,98918.47
2023-05-02T05:19:46.944Z,98925.47
2023-05-02T05:22:13.044Z,98920.31
2023-05-02T05:24:39.211Z,98928.53
2023-05-02T05:27:05.312Z,98933.69
2023-05-02T05:29:31.416Z,98936.19
2023-05-02T05:31:57.568Z,98940.69
2023-05-02T05:34:23.746Z,98947.88
2023-05-02T05:36:49.838Z,98939.84
2023-05-02T05:39:16.015Z,98948.69
2023-05-02T05:41:42.118Z,98950.56
2023-05-02T05:44:08.209Z,98951.38
2023-05-02T05:46:34.409Z,98952.41
2023-05-02T05:49:00.587Z,98950.56
2023-05-02T05:51:26.684Z,98961.47
2023-05-02T05:53:52.899Z,98965.78
2023-05-02T05:56:19.029Z,98961.47
2023-05-02T05:58:45.132Z,98966.81
2023-05-02T06:01:11.244Z,98973.00
2023-05-02T06:03:37.472Z,98964.16
2023-05-02T06:06:03.706Z,98972.19
2023-05-02T06:08:30.003Z,98973.34
2023-05-02T06:10:56.213Z,98976.88
2023-05-02T06:13:22.317Z,98986.56
2023-05-02T06:15:48.448Z,98986.38
2023-05-02T06:18:14.621Z,98981.19
2023-05-02T06:20:40.767Z,98990.25
2023-05-02T06:23:06.872Z,98992.94
2023-05-02T06:25:32.984Z,98998.28
2023-05-02T06:27:59.083Z,98999.28
2023-05-02T06:30:25.345Z,98989.41
2023-05-02T06:32:51.457Z,98998.47
2023-05-02T06:35:17.594Z,99002.19
2023-05-02T06:37:43.707Z,99012.88
2023-05-02T06:40:09.808Z,99019.44
2023-05-02T06:42:35.899Z,99021.09
2023-05-02T06:45:02.143Z,99026.63
2023-05-02T06:47:28.304Z,99033.63
2023-05-02T06:49:54.433Z,99036.09
2023-05-02T06:52:20.606Z,99043.69
2023-05-02T06:54:46.725Z,99045.78
2023-05-02T06:57:12.819Z,99050.13
2023-05-02T06:59:39.115Z,99054.47
2023-05-02T07:02:05.686Z,99060.44
2023-05-02T07:04:31.971Z,99063.13
2023-05-02T07:06:58.326Z,99070.31
2023-05-02T07:09:24.482Z,99061.44
2023-05-02T07:11:50.570Z,99072.97
2023-05-02T07:14:16.680Z,99074.81
2023-05-02T07:16:42.819Z,99078.31
2023-05-02T07:19:08.962Z,99081.00
2023-05-02T07:21:35.160Z,99080.34
2023-05-02T07:24:01.314Z,99089.03
2023-05-02T07:26:27.434Z,99094.38
2023-05-02T07:28:53.571Z,99097.91
2023-05-02T07:31:19.690Z,99092.91
2023-05-02T07:33:45.786Z,99094.59
2023-05-02T07:36:12.053Z,99099.94
2023-05-02T07:38:38.186Z,99107.97
2023-05-02T07:41:04.515Z,99105.28
2023-05-02T07:43:30.662Z,99110.63
2023-05-02T07:45:56.825Z,99101.75
2023-05-02T07:48:23.466Z,99111.63
2023-05-02T07:50:50.591Z,99117.81
2023-05-02T07:53:16.699Z,99112.47
2023-05-02T07:55:42.817Z,99106.84
2023-05-02T07:58:09.337Z,99113.66
2023-05-02T08:00:35.455Z,99120.69
2023-05-02T08:03:01.833Z,99119.88
2023-05-02T08:05:28.110Z,99121.50
2023-05-02T08:07:54.212Z,99124.19
2023-05-02T08:10:20.330Z,99127.69
2023-05-02T08:12:46.466Z,99136.75
2023-05-02T08:15:12.588Z,99134.88
2023-05-02T08:17:38.793Z,99133.44
2023-05-02T08:20:05.110Z,99137.75
2023-05-02T08:22:31.220Z,99137.75
2023-05-02T08:24:57.348Z,99140.41
2023-05-02T08:27:23.463Z,99136.09
2023-05-02T08:29:49.579Z,99148.44
2023-05-02T08:32:15.809Z,99152.16
2023-05-02T08:34:42.102Z,99156.47
2023-05-02T08:37:08.220Z,99167.16
2023-05-02T08:39:34.320Z,99184.25
2023-05-02T08:42:00.429Z,99180.94
2023-05-02T08:44:26.559Z,99202.31
2023-05-02T08:46:52.726Z,99207.03
2023-05-02T08:49:19.109Z,99219.41
2023-05-02T08:51:45.256Z,99214.06
2023-05-02T08:54:11.355Z,99214.06
2023-05-02T08:56:37.482Z,99217.94
2023-05-02T08:59:03.597Z,99230.28
2023-05-02T09:01:29.738Z,99231.09
2023-05-02T09:03:55.944Z,99235.47
2023-05-02T09:06:22.177Z,99227.63
2023-05-02T09:08:48.329Z,99238.31
2023-05-02T09:11:14.668Z,99238.13
2023-05-02T09:13:40.790Z,99251.50
2023-05-02T09:16:06.967Z,99251.69
2023-05-02T09:18:33.251Z,99263.19
2023-05-02T09:20:59.398Z,99261.34
2023-05-02T09:23:26.091Z,99266.69
2023-05-02T09:25:52.938Z,99266.69
2023-05-02T09:28:19.446Z,99265.88
2023-05-02T09:30:45.757Z,99267.72
2023-05-02T09:33:21.871Z,99265.88
2023-05-02T09:35:57.144Z,99276.56
2023-05-02T09:38:23.439Z,99281.94
2023-05-02T09:40:49.725Z,99276.56
2023-05-02T09:43:16.008Z,99281.09
2023-05-02T09:45:42.311Z,99286.47
2023-05-02T09:48:09.286Z,99289.13
2023-05-02T09:50:35.533Z,99287.28
2023-05-02T09:53:01.666Z,99297.97
2023-05-02T09:55:28.038Z,99302.31
2023-05-02T09:57:54.155Z,99303.31
2023-05-02T10:00:20.654Z,99310.53
2023-05-02T10:02:46.820Z,99314.03
2023-05-02T10:05:12.954Z,99318.38
2023-05-02T10:07:39.142Z,99322.06
2023-05-02T10:10:05.258Z,99324.72
2023-05-02T10:12:31.364Z,99311.34
2023-05-02T10:14:57.662Z,99319.38
2023-05-02T10:17:24.008Z,99325.53
2023-05-02T10:19:50.656Z,99336.25
2023-05-02T10:22:17.197Z,99330.06
2023-05-02T10:24:43.287Z,99322.88
2023-05-02T10:27:09.405Z,99325.53
2023-05-02T10:29:36.041Z,99329.06
2023-05-02T10:32:02.205Z,99325.53
2023-05-02T10:34:28.333Z,99334.44
2023-05-02T10:36:54.455Z,99323.06
2023-05-02T10:39:20.846Z,99335.44
2023-05-02T10:41:47.016Z,99323.06
2023-05-02T10:44:13.151Z,99329.25
2023-05-02T10:46:39.312Z,99328.44
2023-05-02T10:49:05.570Z,99332.97
2023-05-02T10:51:31.855Z,99332.09
2023-05-02T10:53:57.958Z,99323.06
2023-05-02T10:56:24.053Z,99329.44
2023-05-02T10:58:50.203Z,99339.13
2023-05-02T11:01:16.335Z,99331.09
2023-05-02T11:03:42.462Z,99349.00
2023-05-02T11:06:08.629Z,99347.16
2023-05-02T11:08:34.729Z,99348.16
2023-05-02T11:11:00.847Z,99341.97
2023-05-02T11:13:26.978Z,99346.50
2023-05-02T11:15:53.091Z,99343.81
2023-05-02T11:18:19.424Z,99349.19
2023-05-02T11:20:45.720Z,99346.50
2023-05-02T11:23:11.828Z,99350.00
2023-05-02T11:25:37.935Z,99354.53
2023-05-02T11:28:04.114Z,99360.91
2023-05-02T11:30:30.230Z,99363.38
2023-05-02T11:32:56.337Z,99362.56
2023-05-02T11:35:22.567Z,99359.88
2023-05-02T11:37:48.684Z,99358.22
2023-05-02T11:40:14.829Z,99355.56
2023-05-02T11:42:40.963Z,99361.72
2023-05-02T11:45:07.074Z,99366.25
2023-05-02T11:47:33.218Z,99364.56
2023-05-02T11:49:59.348Z,99363.56
2023-05-02T11:52:25.487Z,99370.75
2023-05-02T11:54:51.634Z,99376.09
2023-05-02T11:57:17.905Z,99376.94
2023-05-02T11:59:44.025Z,99374.44
2023-05-02T12:02:10.166Z,99370.75
2023-05-02T12:04:36.288Z,99378.78
2023-05-02T12:07:02.486Z,99379.81
2023-05-02T12:09:28.656Z,99377.94
2023-05-02T12:11:54.955Z,99378.97
2023-05-02T12:14:21.105Z,99382.66
2023-05-02T12:16:47.273Z,99381.66
2023-05-02T12:19:13.443Z,99395.84
2023-05-02T12:21:39.547Z,99393.34
2023-05-02T12:24:05.656Z,99400.38
2023-05-02T12:26:31.817Z,99401.19
2023-05-02T12:28:58.027Z,99408.41
2023-05-02T12:31:24.165Z,99405.72
2023-05-02T12:33:50.404Z,99404.69
2023-05-02T12:36:16.531Z,99403.22
2023-05-02T12:38:42.618Z,99408.41
2023-05-02T12:41:08.876Z,99410.22
2023-05-02T12:43:36.107Z,99398.69
2023-05-02T12:46:02.699Z,99398.69
2023-05-02T12:48:28.803Z,99391.50
2023-05-02T12:50:54.908Z,99394.16
2023-05-02T12:53:21.020Z,99393.34
2023-05-02T12:55:47.282Z,99394.16
2023-05-02T12:58:13.388Z,99397.88
2023-05-02T13:00:39.526Z,99399.53
2023-05-02T13:03:05.710Z,99397.03
2023-05-02T13:05:31.881Z,99397.88
2023-05-02T13:07:57.983Z,99404.03
2023-05-02T13:10:24.245Z,99406.72
2023-05-02T13:12:50.356Z,99398.03
2023-05-02T13:15:16.487Z,99405.06
2023-05-02T13:17:42.886Z,99401.56
2023-05-02T13:20:09.196Z,99405.06
2023-05-02T13:22:35.333Z,99405.06
2023-05-02T13:25:01.510Z,99410.41
2023-05-02T13:27:27.607Z,99417.63
2023-05-02T13:29:53.706Z,99411.41
2023-05-02T13:32:19.866Z,99412.28
2023-05-02T13:34:46.032Z,99413.09
2023-05-02T13:37:12.168Z,99412.44
2023-05-02T13:39:39.050Z,99415.94
2023-05-02T13:42:06.239Z,99426.63
2023-05-02T13:44:32.561Z,99417.63
2023-05-02T13:46:58.692Z,99419.44
2023-05-02T13:49:24.790Z,99419.44
2023-05-02T13:51:50.885Z,99429.13
2023-05-02T13:54:17.160Z,99425.66
2023-05-02T13:56:43.268Z,99420.28
2023-05-02T13:59:10.953Z,99426.47
2023-05-02T14:01:37.461Z,99419.25
2023-05-02T14:04:03.784Z,99422.97
2023-05-02T14:06:29.985Z,99427.28
2023-05-02T14:08:56.095Z,99424.78
2023-05-02T14:11:22.181Z,99425.66
2023-05-02T14:13:48.268Z,99431.00
2023-05-02T14:16:14.548Z,99426.47
2023-05-02T14:18:40.691Z,99429.13
2023-05-02T14:21:06.797Z,99428.50
2023-05-02T14:23:32.939Z,99429.50
2023-05-02T14:25:59.062Z,99428.50
2023-05-02T14:28:25.160Z,99424.16
2023-05-02T14:30:51.329Z,99430.13
2023-05-02T14:33:17.455Z,99434.50
2023-05-02T14:35:43.553Z,99424.63
2023-05-02T14:38:09.838Z,99432.63
2023-05-02T14:40:35.919Z,99424.63
2023-05-02T14:43:02.031Z,99436.97
2023-05-02T14:45:28.172Z,99426.25
2023-05-02T14:47:54.301Z,99427.94
2023-05-02T14:50:20.466Z,99425.28
2023-05-02T14:52:46.593Z,99423.41
2023-05-02T14:55:12.688Z,99426.09
2023-05-02T14:57:38.800Z,99427.94
2023-05-02T15:00:05.237Z,99421.56
2023-05-02T15:02:31.744Z,99422.41
2023-05-02T15:04:57.904Z,99421.56
2023-05-02T15:07:24.185Z,99419.75
2023-05-02T15:09:50.400Z,99409.88
2023-05-02T15:12:16.499Z,99419.75
2023-05-02T15:14:42.649Z,99410.69
2023-05-02T15:17:08.842Z,99414.41
2023-05-02T15:19:34.970Z,99413.38
2023-05-02T15:22:03.885Z,99418.88
2023-05-02T15:24:30.093Z,99428.75
2023-05-02T15:26:56.191Z,99422.41
2023-05-02T15:29:22.526Z,99415.22
2023-05-02T15:31:48.828Z,99420.56
2023-05-02T15:34:15.329Z,99421.56
2023-05-02T15:36:41.629Z,99430.25
2023-05-02T15:39:07.737Z,99427.78
2023-05-02T15:41:33.843Z,99433.94
2023-05-02T15:44:00.067Z,99422.22
2023-05-02T15:46:26.305Z,99432.91
2023-05-02T15:48:52.461Z,99431.91
2023-05-02T15:51:18.678Z,99428.38
2023-05-02T15:53:46.659Z,99431.91
2023-05-02T15:56:12.761Z,99443.63
2023-05-02T15:58:38.868Z,99440.94
2023-05-02T16:01:05.202Z,99452.47
2023-05-02T16:03:31.440Z,99447.97
2023-05-02T16:05:57.636Z,99446.28
2023-05-02T16:08:23.762Z,99443.44
2023-05-02T16:10:49.907Z,99446.94
2023-05-02T16:13:16.028Z,99447.97
2023-05-02T16:15:42.148Z,99443.63
2023-05-02T16:18:08.335Z,99456.81
2023-05-02T16:20:34.511Z,99452.28
2023-05-02T16:23:00.621Z,99462.16
2023-05-02T16:25:26.732Z,99451.47
2023-05-02T16:27:52.950Z,99453.13
2023-05-02T16:30:19.047Z,99451.09
2023-05-02T16:32:45.209Z,99455.63
2023-05-02T16:35:11.342Z,99457.47
2023-05-02T16:37:37.463Z,99457.47
2023-05-02T16:40:03.819Z,99461.97
2023-05-02T16:42:30.218Z,99461.97
2023-05-02T16:44:56.344Z,99466.50
2023-05-02T16:47:22.454Z,99466.31
2023-05-02T16:49:48.578Z,99470.00
2023-05-02T16:52:14.711Z,99466.31
2023-05-02T16:54:40.800Z,99460.81
2023-05-02T16:57:06.904Z,99474.19
2023-05-02T16:59:33.002Z,99476.00
2023-05-02T17:01:59.121Z,99474.19
2023-05-02T17:04:27.124Z,99475.16
2023-05-02T17:06:53.279Z,99472.50
2023-05-02T17:09:19.376Z,99484.88
2023-05-02T17:11:45.578Z,99485.69
2023-05-02T17:14:11.700Z,99494.38
2023-05-02T17:16:37.829Z,99485.50
2023-05-02T17:19:04.035Z,99491.88
2023-05-02T17:21:30.127Z,99490.84
2023-05-02T17:23:56.222Z,99487.34
2023-05-02T17:26:22.555Z,99482.81
2023-05-02T17:28:48.655Z,99481.00
2023-05-02T17:31:14.816Z,99481.00
2023-05-02T17:33:40.959Z,99485.31
2023-05-02T17:36:07.050Z,99479.97
2023-05-02T17:38:33.147Z,99483.47
2023-05-02T17:40:59.440Z,99483.47
2023-05-02T17:43:25.551Z,99475.44
2023-05-02T17:45:51.741Z,99480.81
2023-05-02T17:48:18.412Z,99481.63
2023-05-02T17:50:44.528Z,99485.16
2023-05-02T17:53:10.645Z,99479.81
2023-05-02T17:55:36.752Z,99482.28
2023-05-02T17:58:02.878Z,99478.94
2023-05-02T18:00:29.005Z,99486.16
2023-05-02T18:02:55.407Z,99486.97
2023-05-02T18:05:21.564Z,99496.84
2023-05-02T18:07:47.699Z,99488.81
2023-05-02T18:10:13.896Z,99495.84
2023-05-02T18:12:40.023Z,99498.34
2023-05-02T18:15:06.378Z,99501.88
2023-05-02T18:17:32.780Z,99497.34
2023-05-02T18:19:58.909Z,99497.34
2023-05-02T18:22:25.030Z,99497.34
2023-05-02T18:24:51.336Z,99495.66
2023-05-02T18:27:17.503Z,99500.84
2023-05-02T18:29:43.624Z,99500.00
2023-05-02T18:32:10.625Z,99495.84
2023-05-02T18:34:38.766Z,99501.88
2023-05-02T18:37:08.075Z,99503.69
2023-05-02T18:39:34.430Z,99501.88
2023-05-02T18:42:00.587Z,99499.19
2023-05-02T18:44:26.682Z,99499.19
2023-05-02T18:46:52.997Z,99507.22
2023-05-02T18:49:19.112Z,99500.84
2023-05-02T18:51:45.283Z,99509.88
2023-05-02T18:54:11.404Z,99501.00
2023-05-02T18:56:37.502Z,99509.03
2023-05-02T18:59:03.592Z,99509.88
2023-05-02T19:01:29.935Z,99509.03
2023-05-02T19:03:56.138Z,99508.03
2023-05-02T19:06:22.348Z,99512.56
2023-05-02T19:08:48.547Z,99519.72
2023-05-02T19:11:14.657Z,99522.41
2023-05-02T19:13:40.748Z,99528.63
2023-05-02T19:16:07.005Z,99527.75
2023-05-02T19:18:33.194Z,99533.97
2023-05-02T19:20:59.289Z,99539.31
2023-05-02T19:23:25.402Z,99528.63
2023-05-02T19:25:51.507Z,99539.31
2023-05-02T19:28:17.619Z,99534.78
2023-05-02T19:30:43.782Z,99539.31
2023-05-02T19:33:10.202Z,99542.00
2023-05-02T19:35:36.433Z,99541.13
2023-05-02T19:38:02.654Z,99540.16
2023-05-02T19:40:28.819Z,99551.66
2023-05-02T19:42:54.939Z,99553.53
2023-05-02T19:45:21.069Z,99549.00
2023-05-02T19:47:47.195Z,99557.03
2023-05-02T19:50:13.341Z,99560.72
2023-05-02T19:52:39.515Z,99561.53
2023-05-02T19:55:05.616Z,99560.72
2023-05-02T19:57:31.720Z,99566.06
2023-05-02T19:59:57.994Z,99566.06
2023-05-02T20:02:24.145Z,99582.13
2023-05-02T20:04:50.298Z,99580.28
2023-05-02T20:07:16.470Z,99583.13
2023-05-02T20:09:42.579Z,99577.78
2023-05-02T20:12:08.688Z,99582.13
2023-05-02T20:14:34.815Z,99584.97
2023-05-02T20:17:01.955Z,99587.47
2023-05-02T20:19:28.400Z,99584.16
2023-05-02T20:21:54.521Z,99586.81
2023-05-02T20:24:20.618Z,99584.16
2023-05-02T20:26:46.754Z,99576.13
2023-05-02T20:29:13.011Z,99588.63
2023-05-02T20:31:39.124Z,99590.50
2023-05-02T20:34:05.296Z,99594.00
2023-05-02T20:36:32.016Z,99596.66
2023-05-02T20:38:58.111Z,99595.84
2023-05-02T20:41:24.201Z,99587.81
2023-05-02T20:43:50.328Z,99602.22
2023-05-02T20:46:16.508Z,99595.00
2023-05-02T20:48:42.714Z,99595.19
2023-05-02T20:51:08.900Z,99593.38
2023-05-02T20:53:34.992Z,99592.50
2023-05-02T20:56:01.102Z,99603.22
2023-05-02T20:58:27.231Z,99596.03
2023-05-02T21:00:53.346Z,99597.84
2023-05-02T21:03:19.500Z,99604.22
2023-05-02T21:05:45.678Z,99604.06
2023-05-02T21:08:11.779Z,99610.41
2023-05-02T21:10:38.006Z,99610.41
2023-05-02T21:13:04.130Z,99610.41
2023-05-02T21:15:30.265Z,99617.59
2023-05-02T21:17:56.389Z,99607.72
2023-05-02T21:20:22.569Z,99602.38
2023-05-02T21:22:48.666Z,99614.94
2023-05-02T21:25:14.757Z,99606.09
2023-05-02T21:27:40.884Z,99607.94
2023-05-02T21:30:06.990Z,99607.06
2023-05-02T21:32:33.146Z,99605.25
2023-05-02T21:34:59.390Z,99605.41
2023-05-02T21:37:25.632Z,99610.78
2023-05-02T21:39:51.722Z,99613.28
2023-05-02T21:42:17.887Z,99612.63
2023-05-02T21:44:43.973Z,99615.31
2023-05-02T21:47:10.211Z,99612.63
2023-05-02T21:49:36.381Z,99615.31
2023-05-02T21:52:02.481Z,99611.75
2023-05-02T21:54:28.597Z,99615.31
2023-05-02T21:56:54.726Z,99615.31
2023-05-02T21:59:20.860Z,99610.13
2023-05-02T22:01:47.009Z,99611.97
2023-05-02T22:04:13.135Z,99618.97
2023-05-02T22:06:39.308Z,99615.47
2023-05-02T22:09:05.438Z,99621.63
2023-05-02T22:11:31.568Z,99625.34
2023-05-02T22:13:57.659Z,99628.00
2023-05-02T22:16:23.798Z,99622.00
2023-05-02T22:18:49.955Z,99619.16
2023-05-02T22:21:16.045Z,99618.31
2023-05-02T22:23:42.134Z,99627.19
2023-05-02T22:26:08.429Z,99624.69
2023-05-02T22:28:34.534Z,99620.97
2023-05-02T22:31:00.649Z,99625.50
2023-05-02T22:33:26.797Z,99626.34
2023-05-02T22:35:52.915Z,99623.03
2023-05-02T22:38:19.002Z,99621.19
2023-05-02T22:40:45.150Z,99632.88
2023-05-02T22:43:11.242Z,99628.38
2023-05-02T22:45:37.335Z,99640.91
2023-05-02T22:48:03.678Z,99627.53
2023-05-02T22:50:29.925Z,99630.19
2023-05-02T22:52:56.022Z,99623.19
2023-05-02T22:55:22.224Z,99637.41
2023-05-02T22:57:48.321Z,99641.09
2023-05-02T23:00:14.421Z,99631.38
2023-05-02T23:02:40.835Z,99630.41
2023-05-02T23:05:07.046Z,99629.75
2023-05-02T23:07:33.222Z,99631.38
2023-05-02T23:09:59.555Z,99632.22
2023-05-02T23:12:25.706Z,99631.38
2023-05-02T23:14:51.818Z,99628.91
2023-05-02T23:17:17.984Z,99631.38
2023-05-02T23:19:44.091Z,99628.06
2023-05-02T23:22:10.186Z,99626.25
2023-05-02T23:24:36.290Z,99619.03
2023-05-02T23:27:02.390Z,99617.34
2023-05-02T23:29:28.504Z,99616.53
2023-05-02T23:31:54.768Z,99617.34
2023-05-02T23:34:20.931Z,99614.06
2023-05-02T23:36:47.053Z,99619.19
2023-05-02T23:39:13.221Z,99629.06
2023-05-02T23:41:39.322Z,99628.25
2023-05-02T23:44:05.426Z,99624.75
2023-05-02T23:46:31.563Z,99627.44
2023-05-02T23:48:57.713Z,99630.09
2023-05-02T23:51:23.813Z,99632.78
2023-05-02T23:53:49.923Z,99629.25
2023-05-02T23:56:16.027Z,99625.75
2023-05-02T23:58:42.133Z,99631.91
